Time;durP1;ratioP1;P1;durP2;ratioP2;P2;SDS_P1;SDS_P2;PMS_P1;PMS_P2;Temp;Humidity;BMP_temperature;BMP_pressure;BME280_temperature;BME280_humidity;BME280_pressure;Samples;Min_cycle;Max_cycle;Signal;HPM_P1;HPM_P2
2023/02/11 00:04:39;;;;;;;65.32;30.67;;;;;;;4.46;76.75;102065.16;10176973;29;20072;-81
2023/02/11 00:09:42;;;;;;;74.50;34.83;;;;;;;4.74;75.54;102046.59;10173605;29;20051;-80
2023/02/11 00:14:46;;;;;;;71.82;34.85;;;;;;;4.75;76.06;102036.84;10181190;29;20060;-79
2023/02/11 00:19:49;;;;;;;66.32;30.00;;;;;;;4.50;77.35;102032.25;10195219;29;20054;-80
2023/02/11 00:24:52;;;;;;;83.78;35.03;;;;;;;4.65;76.81;102040.69;10161902;29;20100;-80
2023/02/11 00:29:59;;;;;;;78.93;32.95;;;;;;;4.58;77.09;102056.84;10148157;29;20076;-80
2023/02/11 00:35:06;;;;;;;86.22;40.40;;;;;;;4.66;77.34;102058.38;10151462;29;20048;-79
2023/02/11 00:40:09;;;;;;;84.15;38.78;;;;;;;4.86;76.67;102042.69;10182738;29;20052;-80
2023/02/11 00:45:14;;;;;;;75.30;35.70;;;;;;;4.71;77.40;102043.16;10170300;29;20108;-79
2023/02/11 00:50:17;;;;;;;73.35;35.35;;;;;;;4.62;77.76;102052.28;10172803;29;20044;-80
2023/02/11 00:55:20;;;;;;;83.63;39.58;;;;;;;4.81;77.32;102047.28;10145249;29;20055;-79
2023/02/11 01:00:25;;;;;;;84.82;38.42;;;;;;;4.75;77.54;102061.66;10144133;29;20045;-80
2023/02/11 01:05:28;;;;;;;90.55;41.72;;;;;;;4.61;78.43;102062.06;10145293;29;20056;-79
2023/02/11 01:10:32;;;;;;;85.88;41.00;;;;;;;4.82;78.81;102071.19;10146299;29;20127;-80
2023/02/11 01:15:36;;;;;;;66.30;30.90;;;;;;;4.65;80.30;102080.63;10147372;29;20048;-79
2023/02/11 01:20:39;;;;;;;65.63;31.67;;;;;;;4.44;82.12;102072.31;10168962;29;20052;-79
2023/02/11 01:25:42;;;;;;;72.97;34.13;;;;;;;4.23;84.01;102065.84;10154518;29;20059;-80
2023/02/11 01:30:47;;;;;;;79.22;35.28;;;;;;;4.34;84.34;102039.78;10169331;29;20044;-80
2023/02/11 01:35:50;;;;;;;64.45;29.05;;;;;;;3.78;86.51;102036.03;10163841;29;20072;-77
2023/02/11 01:40:55;;;;;;;90.63;45.28;;;;;;;4.22;86.41;102020.63;10159194;29;20053;-79
2023/02/11 01:46:05;;;;;;;82.57;39.67;;;;;;;3.82;87.70;102030.59;10169071;29;20056;-78
2023/02/11 01:51:12;;;;;;;88.88;42.08;;;;;;;4.22;86.10;102020.63;10163352;29;20051;-79
2023/02/11 02:01:40;;;;;;;82.53;41.80;;;;;;;4.19;87.08;102018.94;10175677;23;20048;-81
2023/02/11 02:06:48;;;;;;;79.03;38.80;;;;;;;3.95;89.19;102020.50;10218168;29;20066;-80
2023/02/11 02:11:52;;;;;;;74.80;34.83;;;;;;;4.37;85.98;102033.50;10234727;29;20486;-79
2023/02/11 02:16:56;;;;;;;65.20;31.08;;;;;;;4.17;86.95;102020.78;10201481;29;20048;-80
2023/02/11 02:22:26;;;;;;;86.38;37.10;;;;;;;4.37;85.28;102007.75;10211704;29;20072;-81
2023/02/11 02:27:49;;;;;;;66.72;31.95;;;;;;;4.37;85.51;102001.56;10212544;29;20123;-80
2023/02/11 02:33:14;;;;;;;79.38;36.72;;;;;;;4.23;85.70;101986.03;10214909;29;20452;-80
2023/02/11 02:38:29;;;;;;;60.15;27.92;;;;;;;4.04;86.98;101984.81;10197222;29;20040;-79
2023/02/11 02:43:34;;;;;;;84.68;40.00;;;;;;;4.37;85.36;101982.94;10205767;29;20059;-80
2023/02/11 02:48:38;;;;;;;94.97;40.60;;;;;;;4.22;86.35;101984.25;10211493;29;20040;-79
2023/02/11 02:53:51;;;;;;;74.68;35.33;;;;;;;4.30;85.47;102007.97;10210708;29;20083;-79
2023/02/11 02:59:13;;;;;;;74.72;35.60;;;;;;;4.33;85.08;101992.81;10201952;29;20056;-79
2023/02/11 03:04:23;;;;;;;60.43;27.67;;;;;;;4.32;85.16;101987.53;10200184;29;20441;-80
2023/02/11 03:09:31;;;;;;;73.55;35.72;;;;;;;4.32;85.36;101987.53;10206156;29;20036;-79
2023/02/11 03:14:35;;;;;;;81.78;38.50;;;;;;;4.11;87.27;101986.34;10206592;29;20506;-80
2023/02/11 03:19:43;;;;;;;87.97;42.67;;;;;;;4.22;87.91;101973.63;10209515;29;20140;-80
2023/02/11 03:24:46;;;;;;;77.88;36.17;;;;;;;4.08;88.04;101978.47;10199409;29;20040;-79
2023/02/11 03:29:54;;;;;;;68.30;32.45;;;;;;;3.72;91.45;101975.91;10203283;29;20098;-79
2023/02/11 03:35:03;;;;;;;88.28;40.15;;;;;;;3.75;91.25;101970.50;10206658;29;20067;-80
2023/02/11 03:40:10;;;;;;;84.30;41.50;;;;;;;3.84;91.18;101958.75;10200272;29;20052;-79
2023/02/11 03:45:17;;;;;;;66.25;32.05;;;;;;;3.60;92.65;101937.25;10206875;29;20043;-79
2023/02/11 03:50:23;;;;;;;57.72;26.02;;;;;;;3.55;93.23;101933.00;10204617;29;20110;-79
2023/02/11 03:55:28;;;;;;;65.03;30.67;;;;;;;3.54;94.22;101948.06;10212721;29;20044;-80
2023/02/11 04:00:33;;;;;;;77.90;38.35;;;;;;;3.83;91.65;101960.53;10204676;29;20040;-79
2023/02/11 04:05:38;;;;;;;48.50;24.95;;;;;;;3.75;91.99;101956.34;10198541;29;20048;-79
2023/02/11 04:10:41;;;;;;;76.10;34.80;;;;;;;3.84;91.19;101964.97;10196771;29;20134;-79
2023/02/11 04:15:44;;;;;;;80.35;38.78;;;;;;;3.80;91.64;101967.75;10228951;29;20044;-79
2023/02/11 04:20:51;;;;;;;63.90;28.98;;;;;;;3.99;90.39;101962.78;10228703;29;20051;-79
2023/02/11 04:25:54;;;;;;;65.60;32.67;;;;;;;4.00;89.19;101962.72;10200200;29;20092;-79
2023/02/11 04:30:57;;;;;;;64.25;31.52;;;;;;;4.09;88.29;101957.16;10202311;29;20463;-79
2023/02/11 04:36:02;;;;;;;62.78;30.90;;;;;;;4.17;87.82;101947.16;10205360;29;20147;-79
2023/02/11 04:41:05;;;;;;;61.00;29.60;;;;;;;4.26;86.46;101958.47;10209151;29;20047;-78
2023/02/11 04:46:08;;;;;;;68.60;25.75;;;;;;;4.15;86.88;101943.69;10204164;29;20118;-78
2023/02/11 04:51:12;;;;;;;46.35;19.80;;;;;;;4.09;86.45;101945.66;10203817;29;20055;-80
2023/02/11 04:56:15;;;;;;;70.78;36.75;;;;;;;4.15;86.09;101946.34;10202764;29;20048;-80
2023/02/11 05:01:18;;;;;;;48.28;24.40;;;;;;;4.23;85.67;101959.41;10197784;29;20087;-80
2023/02/11 05:06:22;;;;;;;65.45;35.08;;;;;;;4.18;85.58;101962.19;10203755;29;20106;-79
2023/02/11 05:11:26;;;;;;;56.70;28.27;;;;;;;4.10;85.77;101950.91;10209461;29;20058;-79
2023/02/11 05:16:29;;;;;;;71.97;32.88;;;;;;;4.14;85.93;101968.53;10207323;29;20047;-79
2023/02/11 05:21:33;;;;;;;54.72;25.63;;;;;;;4.25;84.88;101957.59;10196835;29;20115;-80
2023/02/11 05:26:36;;;;;;;63.97;35.00;;;;;;;4.28;84.73;101960.16;10211408;29;20059;-80
2023/02/11 05:31:39;;;;;;;64.05;29.90;;;;;;;4.48;83.63;101946.25;10196689;29;20048;-78
2023/02/11 05:36:43;;;;;;;67.85;32.28;;;;;;;4.39;83.07;101947.41;10203696;29;20115;-77
2023/02/11 05:41:46;;;;;;;78.03;39.53;;;;;;;4.56;83.44;101946.00;10203821;29;20055;-78
2023/02/11 05:46:49;;;;;;;69.35;33.00;;;;;;;4.49;83.80;101947.09;10215781;29;20490;-78
2023/02/11 05:51:53;;;;;;;72.53;34.35;;;;;;;4.47;83.45;101941.84;10215976;29;20514;-77
2023/02/11 05:56:56;;;;;;;71.38;36.00;;;;;;;4.70;82.30;101953.56;10194362;29;20051;-77
2023/02/11 06:01:59;;;;;;;52.65;23.75;;;;;;;4.45;82.80;101950.81;10202342;29;20090;-80
2023/02/11 06:07:04;;;;;;;53.63;28.55;;;;;;;4.52;83.00;101947.88;10203255;29;20048;-79
2023/02/11 06:12:07;;;;;;;62.00;28.88;;;;;;;4.46;82.91;101941.88;10203199;29;20055;-80
2023/02/11 06:17:10;;;;;;;67.15;29.40;;;;;;;4.30;84.12;101941.47;10204611;29;20083;-80
2023/02/11 06:22:16;;;;;;;55.22;28.30;;;;;;;4.61;82.62;101957.41;10188732;29;20048;-78
2023/02/11 06:27:19;;;;;;;58.38;28.17;;;;;;;4.48;83.19;101954.22;10195255;29;20039;-80
2023/02/11 06:32:22;;;;;;;69.18;34.33;;;;;;;4.35;83.45;101958.16;10201051;29;20043;-78
2023/02/11 06:37:48;;;;;;;59.10;30.60;;;;;;;4.37;83.31;101961.66;10209199;29;20067;-80
2023/02/11 06:42:51;;;;;;;61.17;34.10;;;;;;;4.20;84.82;101975.47;10200995;29;20130;-78
2023/02/11 06:47:54;;;;;;;36.83;19.33;;;;;;;4.22;84.26;101978.06;10199036;29;20032;-79
2023/02/11 06:52:58;;;;;;;65.30;31.38;;;;;;;4.16;84.25;101973.81;10205355;29;20513;-80
2023/02/11 06:58:01;;;;;;;42.10;20.35;;;;;;;4.26;84.51;101985.94;10208449;29;20102;-80
2023/02/11 07:03:04;;;;;;;64.68;29.33;;;;;;;4.24;84.83;101966.47;10214344;29;20551;-80
2023/02/11 07:08:08;;;;;;;43.13;19.75;;;;;;;4.23;84.93;101974.50;10226260;28;20414;-80
2023/02/11 07:13:11;;;;;;;54.95;26.92;;;;;;;4.36;84.04;101975.88;10205108;29;20047;-77
2023/02/11 07:18:14;;;;;;;65.00;34.72;;;;;;;4.32;84.75;101964.44;10205618;29;20067;-80
2023/02/11 07:23:18;;;;;;;51.65;23.63;;;;;;;4.11;85.13;101979.28;10202566;29;20040;-80
2023/02/11 07:28:21;;;;;;;50.33;22.83;;;;;;;4.32;84.71;101987.53;10213730;29;20039;-80
2023/02/11 07:33:24;;;;;;;50.40;28.17;;;;;;;4.25;86.06;102002.81;10203333;29;20074;-81
2023/02/11 07:38:28;;;;;;;64.82;30.65;;;;;;;4.22;85.46;102005.53;10204071;29;20677;-80
2023/02/11 07:43:31;;;;;;;71.93;33.35;;;;;;;4.39;85.09;102003.28;10204168;29;20044;-77
2023/02/11 07:48:34;;;;;;;60.67;26.83;;;;;;;4.35;85.02;102011.38;10205070;29;20051;-78
2023/02/11 07:53:39;;;;;;;74.32;35.53;;;;;;;4.43;85.17;101990.75;10210145;29;20048;-78
2023/02/11 07:58:42;;;;;;;60.63;30.27;;;;;;;4.60;83.97;101990.22;10206053;29;20050;-76
2023/02/11 08:03:45;;;;;;;85.72;37.55;;;;;;;4.71;84.08;101998.75;10207162;29;20046;-81
2023/02/11 08:08:50;;;;;;;54.28;25.73;;;;;;;4.66;84.50;102003.34;10208191;29;20091;-80
2023/02/11 08:13:54;;;;;;;77.18;38.88;;;;;;;4.59;84.52;102010.66;10198452;29;20052;-78
2023/02/11 08:18:59;;;;;;;76.78;38.63;;;;;;;4.94;83.33;102007.84;10208055;29;20051;-77
2023/02/11 08:24:04;;;;;;;66.07;28.98;;;;;;;4.66;84.07;102008.69;10203575;29;20526;-79
2023/02/11 08:29:09;;;;;;;75.15;32.33;;;;;;;4.67;84.34;102014.91;10200402;29;20064;-79
2023/02/11 08:34:13;;;;;;;78.07;37.63;;;;;;;4.43;85.92;102027.13;10216139;29;20102;-79
2023/02/11 08:39:18;;;;;;;80.68;41.00;;;;;;;4.73;84.89;102033.34;10224905;29;20578;-79
2023/02/11 08:44:24;;;;;;;77.65;38.17;;;;;;;4.73;84.43;102028.00;10190581;29;20040;-79
2023/02/11 08:49:27;;;;;;;76.53;41.28;;;;;;;4.96;84.13;102025.50;10182251;29;20044;-79
2023/02/11 08:54:31;;;;;;;62.95;29.08;;;;;;;4.78;84.51;102024.28;10202924;29;20044;-79
2023/02/11 08:59:34;;;;;;;66.68;30.17;;;;;;;4.88;84.62;102022.19;10194282;29;20051;-79
2023/02/11 09:04:37;;;;;;;81.78;37.20;;;;;;;4.68;85.75;102036.13;10206219;29;20078;-79
2023/02/11 09:09:41;;;;;;;87.28;35.65;;;;;;;4.65;85.37;102041.56;10197573;29;20414;-79
2023/02/11 09:14:44;;;;;;;72.47;35.22;;;;;;;4.62;85.90;102055.81;10201698;29;20051;-79
2023/02/11 09:19:47;;;;;;;86.43;37.25;;;;;;;4.73;85.86;102070.63;10193745;29;20123;-79
2023/02/11 09:24:51;;;;;;;104.30;42.33;;;;;;;4.70;86.25;102066.25;10201677;29;20075;-79
2023/02/11 09:29:54;;;;;;;58.42;26.75;;;;;;;4.42;87.60;102078.63;10219059;29;20517;-79
2023/02/11 09:34:57;;;;;;;71.07;29.10;;;;;;;4.67;86.15;102087.63;10209391;29;20051;-79
2023/02/11 09:40:01;;;;;;;81.97;35.05;;;;;;;4.67;87.33;102087.63;10199444;29;20068;-79
2023/02/11 09:45:05;;;;;;;72.13;31.63;;;;;;;5.14;84.69;102096.00;10202081;29;20040;-79
2023/02/11 09:50:14;;;;;;;89.65;38.90;;;;;;;4.78;86.63;102096.19;10189598;29;20072;-79
2023/02/11 09:55:21;;;;;;;79.00;34.25;;;;;;;4.97;84.82;102104.50;10201348;29;20450;-79
2023/02/11 10:00:28;;;;;;;84.50;40.90;;;;;;;5.03;85.39;102108.78;10179928;29;20095;-79
2023/02/11 10:05:43;;;;;;;77.80;34.47;;;;;;;4.66;88.08;102107.16;10198851;29;20040;-79
2023/02/11 10:10:52;;;;;;;81.75;36.42;;;;;;;5.13;85.64;102102.28;10190482;29;20040;-80
2023/02/11 10:16:05;;;;;;;71.43;33.63;;;;;;;4.78;86.84;102117.47;10176667;29;20059;-79
2023/02/11 10:21:19;;;;;;;86.78;36.40;;;;;;;4.84;87.02;102117.28;10181300;29;20051;-79
2023/02/11 10:26:26;;;;;;;73.00;32.47;;;;;;;4.84;87.37;102119.97;10201894;29;20055;-79
2023/02/11 10:31:37;;;;;;;89.70;41.55;;;;;;;5.13;86.60;102130.69;10200472;29;20048;-79
2023/02/11 10:36:42;;;;;;;80.00;34.47;;;;;;;4.99;86.39;102134.66;10201797;29;20048;-79
2023/02/11 10:41:50;;;;;;;63.28;25.10;;;;;;;4.90;87.81;102134.00;10206504;29;20044;-79
2023/02/11 10:46:54;;;;;;;77.47;32.92;;;;;;;4.86;88.34;102133.25;10201985;29;20036;-78
2023/02/11 10:52:14;;;;;;;59.50;25.75;;;;;;;4.92;88.67;102146.38;10205012;29;20036;-78
2023/02/11 10:57:19;;;;;;;78.80;34.95;;;;;;;4.94;89.81;102135.69;10182790;29;20044;-79
2023/02/11 11:02:25;;;;;;;58.38;26.42;;;;;;;4.86;89.99;102125.25;10188845;29;20150;-79
2023/02/11 11:07:30;;;;;;;78.40;37.03;;;;;;;5.22;90.22;102125.97;10196254;29;20048;-79
2023/02/11 11:12:39;;;;;;;80.72;40.38;;;;;;;5.23;90.23;102124.16;10202327;29;20139;-79
2023/02/11 11:17:44;;;;;;;70.65;33.30;;;;;;;5.21;88.71;102120.66;10202353;29;20078;-79
2023/02/11 11:22:48;;;;;;;71.40;30.85;;;;;;;5.09;89.75;102129.91;10207544;29;20585;-79
2023/02/11 11:27:55;;;;;;;63.90;29.85;;;;;;;4.95;90.62;102130.28;10196920;29;20054;-79
2023/02/11 11:32:59;;;;;;;72.07;33.35;;;;;;;5.66;87.52;102141.47;10207136;29;20047;-79
2023/02/11 11:38:05;;;;;;;46.20;20.15;;;;;;;5.53;86.37;102146.31;10204518;29;20448;-78
2023/02/11 11:43:19;;;;;;;71.57;32.42;;;;;;;5.49;87.59;102124.22;10212607;29;20146;-79
2023/02/11 11:48:28;;;;;;;61.15;27.05;;;;;;;5.48;87.68;102122.47;10184028;29;20067;-80
2023/02/11 11:53:37;;;;;;;70.03;31.90;;;;;;;5.70;86.71;102124.44;10187904;29;20071;-79
2023/02/11 11:58:42;;;;;;;66.03;27.05;;;;;;;5.49;87.69;102128.69;10197533;29;20578;-80
2023/02/11 12:04:32;;;;;;;70.70;27.52;;;;;;;5.69;85.68;102117.38;10208668;29;20056;-80
2023/02/11 12:09:48;;;;;;;79.72;35.92;;;;;;;5.50;87.29;102111.75;10148967;29;20111;-80
2023/02/11 12:15:00;;;;;;;66.05;33.38;;;;;;;5.57;87.11;102115.09;10197256;29;20044;-77
2023/02/11 12:20:19;;;;;;;58.87;28.43;;;;;;;5.50;87.79;102115.28;10206560;29;20044;-79
2023/02/11 12:25:27;;;;;;;68.28;32.53;;;;;;;5.50;87.04;102122.41;10206445;29;20047;-79
2023/02/11 12:30:47;;;;;;;47.10;21.48;;;;;;;5.62;86.94;102121.13;10198515;29;20044;-79
2023/02/11 12:35:58;;;;;;;68.85;32.53;;;;;;;5.80;86.33;102112.53;10199738;29;20044;-78
2023/02/11 12:41:14;;;;;;;67.88;30.67;;;;;;;5.82;85.79;102113.38;10189387;29;20076;-77
2023/02/11 12:46:33;;;;;;;65.22;30.38;;;;;;;6.24;84.38;102110.13;10194187;29;20099;-80
2023/02/11 12:51:59;;;;;;;78.72;33.42;;;;;;;6.15;83.30;102121.13;10196671;29;20043;-78
2023/02/11 12:57:09;;;;;;;68.20;32.08;;;;;;;6.12;83.62;102111.44;10202300;29;20048;-80
2023/02/11 13:02:26;;;;;;;61.70;28.27;;;;;;;6.08;83.76;102127.59;10203729;29;20135;-80
2023/02/11 13:07:35;;;;;;;68.10;34.88;;;;;;;6.46;82.33;102112.91;10181936;29;20574;-78
2023/02/11 13:18:04;;;;;;;71.75;34.58;;;;;;;6.54;80.89;102117.97;10196488;29;20062;-79
2023/02/11 13:23:16;;;;;;;66.40;30.58;;;;;;;6.85;80.50;102109.66;10195603;29;20068;-79
2023/02/11 13:28:29;;;;;;;66.50;34.80;;;;;;;6.75;80.84;102127.00;10204820;29;20118;-79
2023/02/11 13:33:36;;;;;;;56.78;28.48;;;;;;;6.51;81.50;102126.09;10197698;29;20044;-79
2023/02/11 13:38:39;;;;;;;70.25;32.88;;;;;;;6.50;81.85;102122.56;10201712;29;20051;-79
2023/02/11 13:43:43;;;;;;;65.97;30.67;;;;;;;6.71;81.04;102106.66;10196870;29;20056;-79
2023/02/11 13:48:51;;;;;;;57.08;29.33;;;;;;;6.88;80.17;102106.03;10215323;29;20411;-79
2023/02/11 13:53:57;;;;;;;64.88;33.42;;;;;;;7.14;78.95;102100.56;10195144;29;20099;-79
2023/02/11 13:59:01;;;;;;;56.97;28.58;;;;;;;6.85;79.55;102115.00;10205433;29;20039;-78
2023/02/11 14:09:41;;;;;;;62.13;30.38;;;;;;;6.70;81.49;102104.94;10200701;29;20082;-78
2023/02/11 14:14:59;;;;;;;69.65;30.40;;;;;;;7.22;78.90;102105.63;10196826;29;20438;-79
2023/02/11 14:20:35;;;;;;;57.70;24.92;;;;;;;6.93;80.39;102101.41;10210117;29;20099;-77
2023/02/11 14:25:42;;;;;;;63.75;31.38;;;;;;;6.77;80.45;102114.44;10205226;29;20068;-80
2023/02/11 14:30:54;;;;;;;71.60;30.80;;;;;;;6.99;79.78;102114.53;10203795;29;20035;-78
2023/02/11 14:36:12;;;;;;;50.75;26.50;;;;;;;6.78;80.84;102111.72;10189660;29;20076;-80
2023/02/11 14:41:20;;;;;;;55.13;27.13;;;;;;;6.80;80.27;102107.19;10211098;29;20407;-79
2023/02/11 14:46:26;;;;;;;57.40;27.02;;;;;;;7.03;79.76;102121.50;10189857;29;20044;-78
2023/02/11 14:51:35;;;;;;;62.80;28.92;;;;;;;6.89;79.59;102129.19;10205526;29;20043;-78
2023/02/11 14:56:38;;;;;;;54.55;26.95;;;;;;;6.84;80.12;102132.84;10209872;29;20453;-79
2023/02/11 15:01:42;;;;;;;61.25;30.58;;;;;;;6.84;81.15;102129.31;10185911;29;20385;-79
2023/02/11 15:06:49;;;;;;;53.60;26.17;;;;;;;6.89;80.40;102145.22;10184692;29;20052;-80
2023/02/11 15:11:52;;;;;;;62.60;30.73;;;;;;;6.82;80.59;102148.06;10207808;29;20043;-79
2023/02/11 15:16:58;;;;;;;57.03;27.50;;;;;;;6.83;80.47;102155.16;10203461;29;20076;-79
2023/02/11 15:22:05;;;;;;;54.08;25.27;;;;;;;6.72;81.09;102173.38;10198729;29;20099;-80
2023/02/11 15:27:14;;;;;;;65.82;29.00;;;;;;;6.97;80.47;102175.19;10201269;29;20107;-78
2023/02/11 15:32:20;;;;;;;59.92;25.48;;;;;;;6.89;80.02;102178.13;10183944;29;20547;-79
2023/02/11 15:37:28;;;;;;;59.70;30.50;;;;;;;7.04;79.88;102166.00;10187512;29;20388;-80
2023/02/11 15:42:31;;;;;;;66.50;32.97;;;;;;;7.23;79.40;102175.03;10199794;29;20071;-80
2023/02/11 15:47:49;;;;;;;59.65;26.77;;;;;;;6.78;80.77;102175.81;10208838;29;20051;-80
2023/02/11 15:52:54;;;;;;;62.97;28.77;;;;;;;6.87;80.69;102176.41;10182713;29;20052;-79
2023/02/11 15:58:00;;;;;;;61.50;28.50;;;;;;;6.80;81.21;102194.44;10195208;29;20072;-79
2023/02/11 16:03:03;;;;;;;63.90;30.52;;;;;;;7.22;79.52;102183.16;10203003;29;20534;-79
2023/02/11 16:08:23;;;;;;;70.70;34.40;;;;;;;6.89;80.39;102182.63;10202834;29;20050;-80
2023/02/11 16:13:27;;;;;;;62.50;29.92;;;;;;;6.72;81.23;102186.75;10181326;29;20051;-80
2023/02/11 16:18:36;;;;;;;67.45;29.15;;;;;;;7.06;80.30;102182.84;10183010;29;20052;-80
2023/02/11 16:23:49;;;;;;;57.85;25.45;;;;;;;7.09;79.76;102181.88;10195953;29;20040;-79
2023/02/11 16:28:52;;;;;;;58.47;28.33;;;;;;;6.87;80.93;102188.00;10195026;29;20044;-79
2023/02/11 16:33:56;;;;;;;59.22;30.15;;;;;;;6.97;80.59;102201.91;10180368;29;20054;-79
2023/02/11 16:39:00;;;;;;;53.30;26.08;;;;;;;6.75;81.21;102212.47;10181297;29;20046;-78
2023/02/11 16:44:03;;;;;;;55.20;26.88;;;;;;;6.88;80.56;102223.59;10180658;29;20094;-78
2023/02/11 16:49:11;;;;;;;50.72;24.70;;;;;;;6.94;80.54;102229.63;10187162;29;20044;-79
2023/02/11 16:54:17;;;;;;;50.58;26.50;;;;;;;7.04;80.15;102220.31;10202891;29;20051;-77
2023/02/11 16:59:20;;;;;;;53.05;28.23;;;;;;;6.69;81.99;102223.34;10199229;29;20046;-79
2023/02/11 17:04:27;;;;;;;54.60;29.85;;;;;;;6.89;81.33;102225.38;10197338;29;20403;-77
2023/02/11 17:09:31;;;;;;;55.55;25.73;;;;;;;6.68;81.63;102221.63;10194037;29;20443;-80
2023/02/11 17:14:34;;;;;;;51.75;29.38;;;;;;;6.51;82.95;102228.44;10195930;29;20157;-79
2023/02/11 17:19:37;;;;;;;46.88;18.98;;;;;;;6.63;82.26;102213.75;10180166;29;20052;-78
2023/02/11 17:24:41;;;;;;;53.92;27.70;;;;;;;6.88;81.28;102220.94;10196993;29;20431;-78
2023/02/11 17:29:44;;;;;;;63.70;29.17;;;;;;;6.94;80.88;102234.06;10180286;29;20047;-78
2023/02/11 17:34:47;;;;;;;54.38;27.58;;;;;;;6.84;81.21;102236.19;10184944;29;20048;-79
2023/02/11 17:39:51;;;;;;;52.10;26.52;;;;;;;7.02;80.05;102240.91;10201697;29;20052;-76
2023/02/11 17:44:54;;;;;;;55.95;30.58;;;;;;;6.72;81.99;102240.16;10197337;29;20369;-78
2023/02/11 17:49:57;;;;;;;45.78;21.92;;;;;;;6.73;81.47;102249.03;10218123;29;20506;-79
2023/02/11 17:55:01;;;;;;;56.92;28.73;;;;;;;6.88;81.29;102251.19;10224825;29;20068;-79
2023/02/11 18:00:06;;;;;;;58.17;26.05;;;;;;;6.83;81.21;102248.66;10189920;29;20060;-79
2023/02/11 18:05:14;;;;;;;58.17;28.10;;;;;;;6.88;81.36;102258.34;10187601;29;20053;-79
2023/02/11 18:10:19;;;;;;;53.25;25.80;;;;;;;6.80;80.71;102275.50;10197700;29;20060;-79
2023/02/11 18:15:22;;;;;;;53.17;25.48;;;;;;;6.78;81.53;102274.66;10192910;29;20086;-79
2023/02/11 18:20:25;;;;;;;53.10;27.20;;;;;;;6.84;81.38;102300.28;10201961;29;20311;-80
2023/02/11 18:25:29;;;;;;;54.78;27.02;;;;;;;6.87;81.33;102302.88;10177879;29;20119;-79
2023/02/11 18:30:32;;;;;;;47.30;24.92;;;;;;;6.82;81.36;102300.34;10186192;29;20041;-79
2023/02/11 18:35:37;;;;;;;52.72;28.17;;;;;;;6.85;81.02;102292.19;10191789;29;20103;-79
2023/02/11 18:40:41;;;;;;;49.15;24.58;;;;;;;6.83;81.52;102290.53;10192904;29;20124;-78
2023/02/11 18:45:46;;;;;;;62.80;29.15;;;;;;;6.82;81.66;102288.78;10187379;29;20104;-80
2023/02/11 18:50:49;;;;;;;52.67;28.35;;;;;;;6.85;81.75;102305.56;10190184;29;20059;-80
2023/02/11 18:55:54;;;;;;;67.20;32.28;;;;;;;6.74;82.64;102313.06;10193767;29;20048;-80
2023/02/11 19:00:57;;;;;;;39.22;18.98;;;;;;;6.67;83.12;102316.03;10198853;29;20046;-78
2023/02/11 19:06:00;;;;;;;59.08;31.90;;;;;;;6.85;82.60;102318.91;10200143;29;20056;-79
2023/02/11 19:11:04;;;;;;;67.88;35.97;;;;;;;6.87;82.10;102315.34;10194045;29;20048;-80
2023/02/11 19:16:08;;;;;;;57.67;29.55;;;;;;;6.82;82.54;102329.72;10207312;29;20407;-79
2023/02/11 19:21:13;;;;;;;66.25;33.25;;;;;;;6.61;83.79;102333.16;10196205;29;20130;-79
2023/02/11 19:26:17;;;;;;;69.28;35.50;;;;;;;6.75;83.68;102330.88;10198925;29;20048;-79
2023/02/11 19:31:20;;;;;;;64.25;34.40;;;;;;;6.86;83.17;102346.53;10182322;29;20060;-77
2023/02/11 19:36:23;;;;;;;62.55;28.52;;;;;;;6.60;83.94;102353.59;10184298;29;20419;-80
2023/02/11 19:41:27;;;;;;;63.10;33.95;;;;;;;6.69;83.59;102362.25;10205974;29;20076;-80
2023/02/11 19:46:33;;;;;;;71.40;40.00;;;;;;;7.05;82.42;102353.03;10201642;29;20052;-80
2023/02/11 19:51:38;;;;;;;69.22;37.30;;;;;;;6.74;83.30;102361.16;10213602;29;21028;-80
2023/02/11 19:56:43;;;;;;;70.15;35.75;;;;;;;6.92;82.58;102365.06;10206456;29;20039;-77
2023/02/11 20:01:47;;;;;;;65.38;33.65;;;;;;;6.74;83.54;102370.97;10227460;29;20044;-80
2023/02/11 20:06:50;;;;;;;68.65;35.95;;;;;;;6.73;83.31;102366.56;10212585;29;20119;-80
2023/02/11 20:11:55;;;;;;;65.00;35.10;;;;;;;6.94;82.52;102368.56;10201338;29;20519;-81
2023/02/11 20:16:57;;;;;;;74.43;35.70;;;;;;;6.89;82.89;102370.50;10180417;29;20072;-80
2023/02/11 20:22:00;;;;;;;66.93;37.50;;;;;;;6.67;84.27;102362.31;10191519;29;20048;-79
2023/02/11 20:27:07;;;;;;;70.13;37.00;;;;;;;6.63;84.69;102366.00;10180239;29;20040;-80
2023/02/11 20:32:10;;;;;;;70.88;37.65;;;;;;;7.03;82.98;102375.38;10197764;29;20048;-79
2023/02/11 20:37:13;;;;;;;69.13;35.80;;;;;;;6.89;83.37;102378.53;10197893;29;20051;-79
2023/02/11 20:42:17;;;;;;;65.28;36.10;;;;;;;6.99;82.73;102385.31;10197197;29;20044;-80
2023/02/11 20:47:21;;;;;;;64.13;32.97;;;;;;;6.72;84.63;102384.41;10197774;29;20052;-80
2023/02/11 20:52:24;;;;;;;66.53;37.00;;;;;;;7.21;82.32;102385.44;10209783;29;20049;-78
2023/02/11 20:57:28;;;;;;;64.53;37.10;;;;;;;7.02;83.28;102390.53;10206335;29;20040;-79
2023/02/11 21:02:31;;;;;;;65.22;35.65;;;;;;;7.12;82.55;102396.44;10201118;29;20389;-81
2023/02/11 21:07:34;;;;;;;60.47;34.63;;;;;;;6.91;84.02;102389.16;10198787;29;20043;-80
2023/02/11 21:12:41;;;;;;;56.15;31.75;;;;;;;6.98;82.91;102391.56;10200467;29;20068;-80
2023/02/11 21:17:44;;;;;;;59.53;34.65;;;;;;;7.21;82.21;102404.16;10190850;29;20048;-80
2023/02/11 21:22:47;;;;;;;56.63;34.15;;;;;;;6.81;84.10;102418.81;10203001;29;20044;-80
2023/02/11 21:27:51;;;;;;;56.80;32.13;;;;;;;6.99;82.75;102405.78;10198470;29;20124;-80
2023/02/11 21:32:54;;;;;;;52.65;30.38;;;;;;;7.01;82.74;102417.31;10199439;29;20435;-79
2023/02/11 21:37:57;;;;;;;54.13;31.95;;;;;;;7.12;82.02;102427.63;10194435;29;20071;-80
2023/02/11 21:43:01;;;;;;;55.97;27.67;;;;;;;7.09;81.76;102436.63;10207719;29;20048;-80
2023/02/11 21:48:04;;;;;;;52.03;28.60;;;;;;;6.94;82.25;102437.13;10199681;29;20068;-80
2023/02/11 21:53:07;;;;;;;51.72;30.58;;;;;;;7.05;81.86;102432.34;10194877;29;20044;-78
2023/02/11 21:58:12;;;;;;;50.38;29.40;;;;;;;7.12;81.75;102447.22;10195452;29;20040;-80
2023/02/11 22:03:15;;;;;;;48.00;29.05;;;;;;;7.27;80.65;102457.41;10205221;29;20036;-79
2023/02/11 22:08:18;;;;;;;47.22;26.77;;;;;;;7.26;80.40;102460.09;10196998;29;20054;-79
2023/02/11 22:13:23;;;;;;;46.08;27.20;;;;;;;7.07;81.58;102454.50;10196853;29;20052;-80
2023/02/11 22:18:26;;;;;;;43.67;24.45;;;;;;;6.95;81.73;102465.63;10184492;29;20424;-79
2023/02/11 22:23:29;;;;;;;41.15;23.30;;;;;;;7.14;80.86;102466.75;10185534;29;20541;-80
2023/02/11 22:28:34;;;;;;;44.25;26.05;;;;;;;7.19;81.28;102464.81;10208689;29;20058;-79
2023/02/11 22:33:37;;;;;;;46.60;24.48;;;;;;;7.02;81.83;102476.06;10203934;29;20054;-80
2023/02/11 22:38:39;;;;;;;40.63;23.85;;;;;;;7.01;81.52;102478.78;10202717;29;20048;-80
2023/02/11 22:43:45;;;;;;;40.13;23.05;;;;;;;7.05;81.39;102478.63;10202078;29;20051;-79
2023/02/11 22:48:48;;;;;;;41.58;23.33;;;;;;;7.02;81.20;102492.09;10191737;29;20388;-78
2023/02/11 22:53:53;;;;;;;40.17;22.55;;;;;;;6.97;81.19;102493.19;10198457;29;20040;-80
2023/02/11 22:58:58;;;;;;;43.17;24.85;;;;;;;7.23;80.30;102497.66;10183509;29;20095;-80
2023/02/11 23:04:03;;;;;;;40.17;23.20;;;;;;;6.98;81.63;102487.75;10197482;29;20487;-80
2023/02/11 23:09:07;;;;;;;43.28;24.73;;;;;;;7.13;80.71;102493.53;10208438;29;20604;-80
2023/02/11 23:14:12;;;;;;;42.60;25.73;;;;;;;7.23;80.13;102506.53;10206045;29;20047;-80
2023/02/11 23:19:15;;;;;;;41.95;25.02;;;;;;;7.19;80.55;102514.72;10201293;29;20044;-77
2023/02/11 23:24:18;;;;;;;40.88;23.95;;;;;;;7.16;80.67;102515.69;10197001;29;20044;-79
2023/02/11 23:29:22;;;;;;;46.70;25.73;;;;;;;7.05;81.21;102516.06;10193143;29;20048;-80